Flight Track Log - Related Links

Times and Time Zones

All times are in EDT time to prevent confusion due to time zone crossing. See the SWA1714 flight status page for this flight to view local times or setup timezone preferences in your user account.

Time Position Orientation Groundspeed Altitude Reporting Facility
EDT Latitude Longitude Course Direction KTS MPH feet Rate Location/Type
Sat 01:03:04 AM 33.4333 -111.9833 85° East 175 201 2,000  Level Phoenix TRACON
Sat 01:04:14 AM 33.4375 -111.9197 85° East 209 241 4,100 1,924 Climbing Albuquerque Center
Sat 01:05:15 AM 33.4550 -111.8400 75° East 268 308 6,200 2,975 Climbing Albuquerque Center
Sat 01:06:15 AM 33.4989 -111.7600 57° Northeast 288 331 10,100 3,421 Climbing Albuquerque Center
Sat 01:07:16 AM 33.5394 -111.6678 62° Northeast 320 368 13,100 3,124 Climbing Albuquerque Center
Sat 01:08:16 AM 33.5850 -111.5447 66° East 341 392 16,400 3,074 Climbing Albuquerque Center
Sat 01:09:17 AM 33.6258 -111.4344 66° East 362 417 19,300 2,579 Climbing Albuquerque Center
Sat 01:10:17 AM 33.6692 -111.3203 65° Northeast 377 434 21,600 2,281 Climbing Albuquerque Center
Sat 01:11:18 AM 33.7139 -111.1983 66° East 401 461 23,900 2,182 Climbing Albuquerque Center
Sat 01:12:18 AM 33.7581 -111.0717 67° East 413 475 26,000 2,033 Climbing Albuquerque Center
Sat 01:13:19 AM 33.8042 -110.9386 67° East 428 493 28,000 1,835 Climbing Albuquerque Center
Sat 01:14:19 AM 33.8528 -110.8031 67° East 438 504 29,700 1,636 Climbing Albuquerque Center
Sat 01:15:20 AM 33.9017 -110.6650 67° East 446 513 31,300 1,537 Climbing Albuquerque Center
Sat 01:16:20 AM 33.9528 -110.5225 67° East 458 527 32,800 1,636 Climbing Albuquerque Center
Sat 01:17:21 AM 34.0050 -110.3725 67° East 467 537 34,600 1,488 Climbing Albuquerque Center
Sat 01:18:21 AM 34.0553 -110.2264 67° East 472 543 35,800 1,190 Climbing Albuquerque Center
Sat 01:19:22 AM 34.1075 -110.0739 67° East 475 547 37,000 590 Climbing Albuquerque Center
Sat 01:20:23 AM 34.1567 -109.9342 67° East 475 547 37,000  Level Albuquerque Center
Sat 01:21:23 AM 34.2136 -109.7681 67° East 478 550 37,000  Level Albuquerque Center
Sat 01:22:24 AM 34.2606 -109.6297 68° East 471 542 37,000  Level Albuquerque Center
Sat 01:23:24 AM 34.3081 -109.4903 68° East 468 539 37,000  Level Albuquerque Center
Sat 01:24:25 AM 34.3625 -109.3289 68° East 467 537 37,000  Level Albuquerque Center
Sat 01:25:25 AM 34.4089 -109.1900 68° East 465 535 37,000  Level Albuquerque Center
Sat 01:26:26 AM 34.4375 -109.0425 77° East 471 542 37,000  Level Albuquerque Center
Sat 01:27:26 AM 34.4606 -108.8667 81° East 477 549 37,000  Level Albuquerque Center
Sat 01:28:27 AM 34.4789 -108.7156 82° East 476 548 37,000  Level Albuquerque Center
Sat 01:29:27 AM 34.4978 -108.5628 81° East 476 548 37,000 -1,091 Level Albuquerque Center
Sat 01:30:28 AM 34.5225 -108.3986 80° East 479 551 34,800 -1,967 Descending Albuquerque Center
Sat 01:31:29 AM 34.5489 -108.2442 78° East 474 545 33,000 -1,934 Descending Albuquerque Center
Sat 01:32:29 AM 34.5469 -108.0919 91° East 471 542 30,900 -2,678 Descending Albuquerque Center
Sat 01:33:30 AM 34.5764 -107.9481 76° East 455 524 27,600 -2,826 Descending Albuquerque Center
Sat 01:34:30 AM 34.6328 -107.8150 63° Northeast 447 514 25,200 -2,331 Descending Albuquerque Center
Sat 01:35:31 AM 34.6856 -107.6892 63° Northeast 428 493 22,900 -2,281 Descending Albuquerque Center
Sat 01:36:31 AM 34.7353 -107.5672 64° Northeast 410 472 20,600 -2,200 Descending Albuquerque Center
Sat 01:37:31 AM 34.7831 -107.4511 63° Northeast 392 451 18,500 -2,160 Descending Albuquerque Center
Sat 01:37:46 AM 34.7969 -107.4156 65° Northeast 375 432 17,900 -2,182 Descending Albuquerque Center
Sat 01:38:04 AM 34.8125 -107.3806 62° Northeast 369 425 17,300 -1,957 Descending Albuquerque Center
Sat 01:38:32 AM 34.8292 -107.3411 63° Northeast 374 430 16,400 -2,262 Descending Albuquerque Center
Sat 01:39:05 AM 34.8583 -107.2608 66° East 358 412 15,000 -2,000 Descending Albuquerque Center
Sat 01:39:32 AM 34.8633 -107.2292 79° East 362 417 14,400 -2,111 Descending Albuquerque Center
Sat 01:39:59 AM 34.8736 -107.1639 79° East 350 403 13,100 -2,361 Descending Albuquerque Center
Sat 01:40:33 AM 34.8828 -107.1125 78° East 355 409 12,000 -1,475 Descending Albuquerque Center
Sat 01:41:00 AM 34.8933 -107.0425 80° East 338 389 11,600 -1,000 Descending Albuquerque Center
Sat 01:41:33 AM 34.8997 -107.0056 78° East 342 394 11,000 -1,574 Descending Albuquerque Center
Sat 01:42:01 AM 34.9125 -106.9419 76° East 297 342 10,000 -1,574 Descending Albuquerque Center
Sat 01:42:34 AM 34.9161 -106.9083 83° East 317 365 9,400 -1,600 Descending Albuquerque Center
Sat 01:43:01 AM 34.9278 -106.8450 77° East 294 338 8,400 -1,900 Descending Albuquerque Center
Sat 01:43:34 AM 34.9353 -106.7928 80° East 302 348 7,500 -1,091 Descending Albuquerque Center
Sat 01:43:56 AM 34.9425 -106.7583 76° East 285 328 7,400 -300 Descending Albuquerque Center
Sat 01:44:34 AM 34.9533 -106.7125 74° East 271 312 7,200 -600 Descending Albuquerque Center
Sat 01:44:56 AM 34.9697 -106.6942 43° Northeast 202 232 6,800 -984 Descending Albuquerque Center
Sat 01:45:35 AM 34.9917 -106.6661 46° Northeast 221 254 6,200 -984 Descending Albuquerque Center
Sat 01:45:57 AM 35.0050 -106.6514 42° Northeast 165 190 5,800 -900 Descending Albuquerque Center
Sat 01:46:35 AM 35.0225 -106.6275 48° Northeast 186 214 5,300 -789 Descending Albuquerque Center
Sat 01:48:00 AM 35.0333 -106.6000 51° Northeast  Level FlightAware Approximate

Login

Don't have an account? Register now (free) for customized features, flight alerts, and more!